Time;durP1;ratioP1;P1;durP2;ratioP2;P2;SDS_P1;SDS_P2;PMS_P1;PMS_P2;Temp;Humidity;BMP_temperature;BMP_pressure;BME280_temperature;BME280_humidity;BME280_pressure;Samples;Min_cycle;Max_cycle;Signal;HPM_P1;HPM_P2
2021/10/12 00:00:06;;;;;;;;;10.00;7.00;;;;;11.75;81.84;102404.25;4961649;28;45214;-57
2021/10/12 00:02:31;;;;;;;;;4.50;4.25;;;;;11.73;81.19;102407.75;4961863;28;45227;-57
2021/10/12 00:04:57;;;;;;;;;10.00;5.00;;;;;11.71;81.70;102412.97;4961428;28;45441;-57
2021/10/12 00:07:22;;;;;;;;;10.75;5.75;;;;;11.71;81.13;102412.97;4961285;28;46207;-57
2021/10/12 00:09:48;;;;;;;;;8.25;6.50;;;;;11.71;81.66;102412.09;4958400;28;45556;-57
2021/10/12 00:12:13;;;;;;;;;8.00;5.00;;;;;11.68;81.92;102407.78;4959217;28;45809;-58
2021/10/12 00:14:38;;;;;;;;;5.00;5.00;;;;;11.65;81.91;102418.22;4959183;28;45366;-57
2021/10/12 00:17:04;;;;;;;;;4.75;4.75;;;;;11.65;81.73;102407.78;4958685;28;46018;-57
2021/10/12 00:19:30;;;;;;;;;3.50;3.50;;;;;11.66;81.71;102398.25;4959037;28;45647;-58
2021/10/12 00:21:55;;;;;;;;;5.00;5.00;;;;;11.66;81.31;102411.25;4959311;28;45778;-57
2021/10/12 00:24:20;;;;;;;;;8.75;7.75;;;;;11.69;81.70;102422.53;4960938;28;45864;-57
2021/10/12 00:26:46;;;;;;;;;8.75;4.75;;;;;11.69;81.58;102416.44;4961372;28;46432;-58
2021/10/12 00:29:11;;;;;;;;;5.50;5.50;;;;;11.68;81.65;102401.69;4960540;28;45369;-58
2021/10/12 00:31:37;;;;;;;;;8.25;5.00;;;;;11.67;81.58;102402.59;4960041;28;45427;-58
2021/10/12 00:34:02;;;;;;;;;8.00;7.00;;;;;11.67;81.66;102403.44;4960826;28;45350;-58
2021/10/12 00:36:27;;;;;;;;;8.50;8.00;;;;;11.65;81.77;102405.19;4961424;28;46281;-58
2021/10/12 00:38:53;;;;;;;;;9.25;6.50;;;;;11.62;82.18;102397.41;4961281;28;45331;-58
2021/10/12 00:41:20;;;;;;;;;9.00;6.75;;;;;11.59;82.09;102402.59;4961256;28;45232;-58
2021/10/12 00:43:46;;;;;;;;;7.50;5.75;;;;;11.61;82.00;102407.78;4961210;28;45385;-58
2021/10/12 00:46:12;;;;;;;;;9.25;7.00;;;;;11.59;81.98;102393.03;4960912;28;45254;-58
2021/10/12 00:48:37;;;;;;;;;4.25;4.25;;;;;11.57;82.71;102391.31;4961220;28;45255;-58
2021/10/12 00:51:02;;;;;;;;;8.25;5.50;;;;;11.55;82.43;102398.28;4961387;28;45383;-58
2021/10/12 00:53:29;;;;;;;;;9.00;6.50;;;;;11.53;82.44;102387.00;4961217;28;45268;-58
2021/10/12 00:55:55;;;;;;;;;8.25;7.75;;;;;11.49;82.47;102380.09;4961048;28;45439;-58
2021/10/12 00:58:21;;;;;;;;;8.25;6.50;;;;;11.51;83.11;102383.56;4960771;28;45354;-58
2021/10/12 01:00:46;;;;;;;;;13.25;7.75;;;;;11.48;83.03;102378.38;4960784;28;45334;-58
2021/10/12 01:03:12;;;;;;;;;4.75;3.75;;;;;11.48;83.11;102381.84;4960603;28;45306;-58
2021/10/12 01:05:37;;;;;;;;;9.50;5.50;;;;;11.48;82.73;102374.03;4961144;28;45779;-58
2021/10/12 01:08:03;;;;;;;;;10.75;7.75;;;;;11.48;82.95;102373.16;4959836;28;45768;-58
2021/10/12 01:10:29;;;;;;;;;8.25;7.25;;;;;11.47;82.97;102369.69;4961016;28;45303;-58
2021/10/12 01:12:55;;;;;;;;;8.00;6.75;;;;;11.46;83.24;102362.75;4960538;28;45505;-57
2021/10/12 01:15:20;;;;;;;;;10.75;9.25;;;;;11.43;83.23;102354.09;4960623;28;45331;-58
2021/10/12 01:17:46;;;;;;;;;9.00;8.00;;;;;11.42;82.97;102362.78;4960346;28;45188;-58
2021/10/12 01:20:12;;;;;;;;;7.00;7.00;;;;;11.40;83.07;102360.16;4960949;28;45192;-58
2021/10/12 01:22:43;;;;;;;;;10.25;8.00;;;;;11.39;83.45;102357.56;4942997;28;45409;-58
2021/10/12 01:25:10;;;;;;;;;10.25;8.00;;;;;11.37;83.61;102351.50;4960520;28;47360;-58
2021/10/12 01:27:35;;;;;;;;;9.25;7.75;;;;;11.30;83.71;102344.63;4960294;28;45783;-58
2021/10/12 01:30:02;;;;;;;;;10.00;9.00;;;;;11.26;84.14;102343.78;4960616;28;46496;-58
2021/10/12 01:32:27;;;;;;;;;10.25;9.25;;;;;11.25;83.90;102339.44;4942930;28;45874;-58
2021/10/12 01:34:53;;;;;;;;;9.25;8.00;;;;;11.26;83.69;102329.03;4959170;28;46488;-58
2021/10/12 01:37:18;;;;;;;;;10.00;7.25;;;;;11.24;84.03;102314.28;4960401;28;45392;-58
2021/10/12 01:39:43;;;;;;;;;16.00;10.50;;;;;11.25;83.72;102308.22;4960496;28;45365;-57
2021/10/12 01:42:09;;;;;;;;;9.75;8.00;;;;;11.27;84.21;102311.66;4960116;28;45298;-57
2021/10/12 01:44:34;;;;;;;;;11.25;9.00;;;;;11.24;84.07;102316.91;4960312;28;45646;-57
2021/10/12 01:46:59;;;;;;;;;12.75;9.50;;;;;11.20;83.98;102309.94;4960143;28;45285;-57
2021/10/12 01:49:25;;;;;;;;;10.50;8.00;;;;;11.22;83.92;102318.66;4960342;28;45271;-57
2021/10/12 01:51:50;;;;;;;;;13.50;9.75;;;;;11.23;84.07;102326.44;4960202;28;45383;-57
2021/10/12 01:54:24;;;;;;;;;10.50;9.00;;;;;11.17;84.37;102323.84;4960294;28;46313;-58
2021/10/12 01:56:51;;;;;;;;;8.50;8.00;;;;;11.17;84.47;102336.00;4948505;28;45263;-58
2021/10/12 01:59:16;;;;;;;;;15.50;10.00;;;;;11.12;84.42;102324.75;4959905;28;45341;-58
2021/10/12 02:01:42;;;;;;;;;12.50;10.25;;;;;11.05;85.53;102331.72;4959655;28;45327;-57
2021/10/12 02:04:07;;;;;;;;;9.50;8.25;;;;;11.00;86.40;102328.25;4960034;28;46055;-57
2021/10/12 02:06:33;;;;;;;;;12.50;9.75;;;;;10.97;85.01;102329.13;4960161;28;45327;-57
2021/10/12 02:08:58;;;;;;;;;9.25;9.25;;;;;10.88;85.62;102313.56;4959357;28;45230;-57
2021/10/12 02:11:24;;;;;;;;;8.00;7.75;;;;;10.90;84.99;102317.03;4929473;28;45326;-57
2021/10/12 02:13:49;;;;;;;;;15.75;10.25;;;;;10.88;86.54;102312.72;4960066;28;46442;-57
2021/10/12 02:16:14;;;;;;;;;9.25;9.25;;;;;10.82;86.19;102315.34;4959788;28;45223;-58
2021/10/12 02:18:40;;;;;;;;;11.25;9.75;;;;;10.79;86.01;102312.72;4958080;28;45300;-58
2021/10/12 02:21:05;;;;;;;;;13.50;8.25;;;;;10.76;86.26;102303.19;4957793;28;45549;-58
2021/10/12 02:23:30;;;;;;;;;11.75;10.00;;;;;10.76;86.36;102292.78;4941670;28;46836;-58
2021/10/12 02:25:56;;;;;;;;;11.50;8.50;;;;;10.75;86.18;102277.19;4959947;28;45310;-57
2021/10/12 02:28:21;;;;;;;;;10.75;8.25;;;;;10.73;86.19;102284.16;4960035;28;45250;-58
2021/10/12 02:30:47;;;;;;;;;13.75;10.00;;;;;10.70;86.37;102289.34;4946936;28;45236;-58
2021/10/12 02:33:12;;;;;;;;;13.75;9.75;;;;;10.66;86.64;102297.19;4959856;28;45216;-58
2021/10/12 02:35:38;;;;;;;;;12.75;9.25;;;;;10.66;87.56;102328.38;4959397;28;45219;-58
2021/10/12 02:38:03;;;;;;;;;10.25;7.00;;;;;10.58;88.11;102311.91;4957686;28;45759;-59
2021/10/12 02:40:28;;;;;;;;;11.25;9.00;;;;;10.58;87.80;102309.31;4957797;28;45458;-59
2021/10/12 02:42:54;;;;;;;;;12.75;10.00;;;;;10.56;87.57;102311.06;4957063;28;46573;-59
2021/10/12 02:45:19;;;;;;;;;14.50;11.00;;;;;10.56;87.35;102292.84;4957164;28;45437;-59
2021/10/12 02:47:45;;;;;;;;;9.75;9.50;;;;;10.56;86.91;102282.44;4957748;28;45353;-59
2021/10/12 02:50:10;;;;;;;;;10.50;8.00;;;;;10.53;87.76;102279.00;4958045;28;45422;-59
2021/10/12 02:52:36;;;;;;;;;10.25;9.00;;;;;10.53;87.06;102285.06;4959534;28;45700;-59
2021/10/12 02:55:04;;;;;;;;;13.50;8.50;;;;;10.58;86.67;102293.72;4959802;28;45351;-59
2021/10/12 02:57:32;;;;;;;;;10.50;8.00;;;;;10.56;87.48;102287.66;4962808;28;45203;-59
2021/10/12 02:59:57;;;;;;;;;12.00;7.50;;;;;10.53;87.37;102276.41;4962367;28;45363;-58
2021/10/12 03:02:22;;;;;;;;;8.25;8.00;;;;;10.46;88.16;102272.97;4955346;28;46493;-58
2021/10/12 03:04:48;;;;;;;;;13.00;10.00;;;;;10.48;87.48;102279.03;4952778;28;45214;-58
2021/10/12 03:07:13;;;;;;;;;10.75;9.00;;;;;10.48;88.27;102288.56;4952355;28;45167;-58
2021/10/12 03:09:38;;;;;;;;;14.25;8.00;;;;;10.46;87.95;102288.56;4959226;28;45487;-58
2021/10/12 03:12:05;;;;;;;;;13.75;9.50;;;;;10.47;87.69;102290.28;4953304;28;46632;-58
2021/10/12 03:14:31;;;;;;;;;10.00;10.00;;;;;10.45;87.75;102284.25;4953076;28;45359;-58
2021/10/12 03:16:56;;;;;;;;;13.00;10.25;;;;;10.40;88.37;102280.75;4951591;28;45361;-58
2021/10/12 03:19:22;;;;;;;;;12.75;8.75;;;;;10.38;88.32;102282.50;4955369;28;45590;-58
2021/10/12 03:21:54;;;;;;;;;4.50;3.00;;;;;10.35;88.32;102274.72;4962595;28;46265;-62
2021/10/12 03:24:19;;;;;;;;;9.75;8.00;;;;;10.31;89.18;102253.06;4962214;28;45382;-58
2021/10/12 03:26:45;;;;;;;;;9.50;8.50;;;;;10.30;88.21;102253.06;4962516;28;45396;-58
2021/10/12 03:29:11;;;;;;;;;8.75;7.25;;;;;10.29;89.59;102248.75;4949593;28;45557;-58
2021/10/12 03:31:36;;;;;;;;;11.00;9.25;;;;;10.27;88.95;102261.75;4961990;28;46340;-59
2021/10/12 03:34:01;;;;;;;;;18.25;10.00;;;;;10.26;89.04;102260.00;4962420;28;45426;-58
2021/10/12 03:36:27;;;;;;;;;11.25;9.25;;;;;10.24;89.55;102251.38;4962452;28;45453;-59
2021/10/12 03:38:52;;;;;;;;;8.75;8.00;;;;;10.22;89.00;102265.22;4962512;28;45345;-58
2021/10/12 03:41:17;;;;;;;;;8.00;7.00;;;;;10.22;88.85;102260.03;4961674;28;45981;-58
2021/10/12 03:43:43;;;;;;;;;12.00;7.75;;;;;10.20;88.83;102246.13;4962366;28;45228;-58
2021/10/12 03:46:12;;;;;;;;;8.00;8.00;;;;;10.24;89.14;102266.94;4962176;28;45418;-58
2021/10/12 03:48:38;;;;;;;;;9.00;6.75;;;;;10.21;88.83;102266.06;4962114;28;45320;-58
2021/10/12 03:51:03;;;;;;;;;7.00;7.00;;;;;10.19;88.46;102262.56;4962154;28;45509;-58
2021/10/12 03:53:29;;;;;;;;;13.00;9.00;;;;;10.18;88.96;102266.03;4962093;28;45394;-59
2021/10/12 03:55:54;;;;;;;;;9.25;8.00;;;;;10.20;88.83;102265.16;4962344;28;45309;-59
2021/10/12 03:58:19;;;;;;;;;10.00;8.00;;;;;10.17;89.47;102264.31;4962117;28;45425;-58
2021/10/12 04:00:45;;;;;;;;;13.00;8.00;;;;;10.16;89.64;102257.38;4961435;28;45487;-58
2021/10/12 04:03:10;;;;;;;;;12.50;7.00;;;;;10.13;88.85;102247.88;4960400;28;45546;-61
2021/10/12 04:05:35;;;;;;;;;13.75;9.50;;;;;10.11;88.86;102251.34;4962140;28;45483;-60
2021/10/12 04:08:01;;;;;;;;;12.75;9.50;;;;;10.10;89.45;102254.81;4958210;28;45612;-60
2021/10/12 04:10:26;;;;;;;;;7.50;7.00;;;;;10.08;89.49;102257.41;4961623;28;46437;-60
2021/10/12 04:12:51;;;;;;;;;23.25;17.75;;;;;10.07;89.27;102253.94;4961312;28;45300;-61
2021/10/12 04:15:17;;;;;;;;;27.75;23.00;;;;;10.07;89.20;102243.56;4961569;28;45418;-62
2021/10/12 04:17:42;;;;;;;;;8.50;7.00;;;;;10.07;89.72;102245.28;4960765;28;45458;-60
2021/10/12 04:20:08;;;;;;;;;7.50;6.50;;;;;10.04;89.40;102248.75;4961360;28;45355;-60
2021/10/12 04:22:34;;;;;;;;;11.75;9.00;;;;;10.07;89.45;102253.94;4961159;28;45256;-60
2021/10/12 04:24:59;;;;;;;;;8.25;6.75;;;;;10.09;88.94;102259.13;4961558;28;45264;-59
2021/10/12 04:27:26;;;;;;;;;12.00;9.75;;;;;10.09;89.77;102259.13;4960806;28;45478;-58
2021/10/12 04:29:52;;;;;;;;;7.50;7.00;;;;;10.09;89.20;102263.47;4961042;28;45431;-59
2021/10/12 04:32:17;;;;;;;;;10.25;8.00;;;;;10.00;90.45;102254.78;4940306;28;45702;-60
2021/10/12 04:34:43;;;;;;;;;7.75;7.75;;;;;10.00;89.97;102266.91;4954025;28;45257;-61
2021/10/12 04:37:09;;;;;;;;;9.75;8.25;;;;;9.98;89.72;102256.53;4961010;28;45483;-60
2021/10/12 04:39:34;;;;;;;;;9.50;8.75;;;;;9.95;89.62;102260.88;4961261;28;45393;-60
2021/10/12 04:42:01;;;;;;;;;11.00;9.75;;;;;9.89;90.56;102253.97;4960751;28;45303;-61
2021/10/12 04:44:27;;;;;;;;;12.00;9.00;;;;;9.87;90.62;102249.63;4960888;28;45404;-60
2021/10/12 04:46:53;;;;;;;;;15.25;11.00;;;;;9.82;90.61;102236.66;4961112;28;45597;-61
2021/10/12 04:49:19;;;;;;;;;18.50;14.25;;;;;9.84;90.61;102249.63;4959306;28;45869;-61
2021/10/12 04:51:44;;;;;;;;;16.25;12.50;;;;;9.84;90.31;102258.28;4943414;28;45237;-62
2021/10/12 04:54:09;;;;;;;;;9.00;8.00;;;;;9.84;90.38;102260.03;4960683;28;45233;-62
2021/10/12 04:56:35;;;;;;;;;17.25;10.25;;;;;9.90;91.01;102253.09;4958422;28;45304;-60
2021/10/12 04:59:01;;;;;;;;;12.75;9.25;;;;;9.94;90.26;102253.94;4958682;28;45377;-60
2021/10/12 05:01:26;;;;;;;;;15.50;8.25;;;;;9.92;91.36;102250.50;4958617;28;45586;-60
2021/10/12 05:03:51;;;;;;;;;13.50;12.00;;;;;9.94;90.76;102260.00;4959630;28;45334;-60
2021/10/12 05:06:17;;;;;;;;;16.00;7.25;;;;;10.01;90.84;102255.66;4959464;28;45427;-60
2021/10/12 05:08:42;;;;;;;;;15.00;11.25;;;;;10.01;91.08;102251.38;4959132;28;45339;-60
2021/10/12 05:11:07;;;;;;;;;19.50;13.25;;;;;10.01;91.62;102248.78;4959929;28;45307;-60
2021/10/12 05:13:33;;;;;;;;;10.25;10.25;;;;;10.05;91.63;102240.09;4960355;28;45196;-60
2021/10/12 05:16:02;;;;;;;;;9.00;9.00;;;;;10.12;90.35;102253.94;4959517;28;45329;-63
2021/10/12 05:18:31;;;;;;;;;15.25;9.50;;;;;10.16;90.13;102237.47;4958708;28;45355;-62
2021/10/12 05:20:57;;;;;;;;;16.75;12.00;;;;;10.13;90.21;102229.69;4959718;28;45793;-61
2021/10/12 05:23:22;;;;;;;;;12.75;11.00;;;;;10.14;90.03;102235.75;4959785;28;45235;-58
2021/10/12 05:25:49;;;;;;;;;16.50;12.25;;;;;10.15;89.99;102247.88;4959856;28;45219;-59
2021/10/12 05:28:15;;;;;;;;;10.00;7.00;;;;;10.11;91.13;102238.34;4959902;28;45591;-58
2021/10/12 05:30:42;;;;;;;;;11.00;8.00;;;;;10.07;91.39;102247.88;4959617;28;45441;-58
2021/10/12 05:33:11;;;;;;;;;12.25;11.75;;;;;10.01;90.82;102233.19;4960151;28;45330;-59
2021/10/12 05:35:37;;;;;;;;;13.75;11.50;;;;;10.00;91.11;102244.41;4959682;28;45269;-62
2021/10/12 05:38:03;;;;;;;;;15.25;12.50;;;;;9.97;90.83;102241.81;4959588;28;45570;-62
2021/10/12 05:40:28;;;;;;;;;14.00;12.75;;;;;9.96;90.98;102247.88;4959690;28;45290;-61
2021/10/12 05:42:53;;;;;;;;;19.25;16.75;;;;;9.91;91.61;102226.25;4959810;28;45418;-62
2021/10/12 05:45:19;;;;;;;;;11.50;8.75;;;;;9.90;91.48;102223.66;4959500;28;45348;-61
2021/10/12 05:47:44;;;;;;;;;18.50;15.00;;;;;9.89;91.31;102242.72;4959503;28;45423;-59
2021/10/12 05:50:09;;;;;;;;;13.00;11.50;;;;;9.86;91.74;102243.56;4959390;28;45299;-60
2021/10/12 05:52:37;;;;;;;;;12.25;10.75;;;;;9.85;91.70;102241.84;4958894;28;45434;-60
2021/10/12 05:55:10;;;;;;;;;16.50;13.25;;;;;9.84;92.01;102234.94;4958718;28;45266;-61
2021/10/12 05:58:26;;;;;;;;;14.75;13.00;;;;;9.86;91.20;102238.38;4959351;28;45354;-61
2021/10/12 06:00:24;;;;;;;;;23.25;17.00;;;;;9.88;91.04;102240.97;4956190;28;45279;-61
2021/10/12 06:02:49;;;;;;;;;16.50;14.75;;;;;9.89;90.88;102238.38;4959864;28;45165;-60
2021/10/12 06:05:14;;;;;;;;;14.00;12.00;;;;;9.89;91.73;102234.91;4959695;28;45623;-59
2021/10/12 06:07:40;;;;;;;;;19.50;14.75;;;;;9.86;92.07;102240.97;4959493;28;46228;-63
2021/10/12 06:10:06;;;;;;;;;15.75;14.00;;;;;9.84;91.75;102239.25;4958982;28;45356;-63
2021/10/12 06:12:31;;;;;;;;;14.75;13.00;;;;;9.83;92.05;102233.19;4959262;28;45327;-62
2021/10/12 06:14:56;;;;;;;;;19.50;17.00;;;;;9.83;92.08;102233.19;4959255;28;45484;-62
2021/10/12 06:17:22;;;;;;;;;21.00;18.25;;;;;9.81;92.47;102229.75;4958434;28;45220;-62
2021/10/12 06:19:47;;;;;;;;;18.00;16.00;;;;;9.77;92.24;102240.97;4959008;28;45311;-62
2021/10/12 06:22:12;;;;;;;;;18.25;14.75;;;;;9.80;93.00;102237.50;4959632;28;45272;-62
2021/10/12 06:24:38;;;;;;;;;19.50;14.50;;;;;9.77;92.98;102230.59;4959608;28;45180;-62
2021/10/12 06:27:03;;;;;;;;;20.00;15.25;;;;;9.79;92.81;102234.03;4959186;28;45432;-62
2021/10/12 06:29:29;;;;;;;;;25.25;19.50;;;;;9.81;92.54;102232.34;4959239;28;45362;-62
2021/10/12 06:31:54;;;;;;;;;19.75;18.00;;;;;9.82;92.19;102233.19;4961954;28;45485;-62
2021/10/12 06:34:19;;;;;;;;;21.75;16.50;;;;;9.88;92.34;102231.47;4962899;28;45572;-62
2021/10/12 06:36:45;;;;;;;;;19.75;15.50;;;;;9.93;92.28;102242.69;4962486;28;46214;-62
2021/10/12 06:39:10;;;;;;;;;16.00;12.50;;;;;9.93;91.85;102239.25;4961142;28;45317;-63
2021/10/12 06:41:35;;;;;;;;;19.00;16.50;;;;;9.97;92.08;102239.22;4961841;28;45502;-62
2021/10/12 06:44:01;;;;;;;;;17.50;15.25;;;;;10.02;91.46;102231.44;4962711;28;45525;-63
2021/10/12 06:46:26;;;;;;;;;17.75;15.75;;;;;10.12;91.25;102240.09;4962261;28;45266;-62
2021/10/12 06:48:52;;;;;;;;;23.00;19.25;;;;;10.23;91.01;102244.44;4962638;28;45238;-62
2021/10/12 06:51:17;;;;;;;;;19.50;17.50;;;;;10.32;90.91;102238.34;4962500;28;45275;-62
2021/10/12 06:53:45;;;;;;;;;16.25;12.25;;;;;10.37;90.58;102236.59;4962344;28;45544;-63
2021/10/12 06:56:11;;;;;;;;;17.25;17.25;;;;;10.44;89.97;102242.66;4961957;28;45280;-63
2021/10/12 06:58:36;;;;;;;;;19.75;17.50;;;;;10.51;90.05;102245.22;4960905;28;45278;-63
2021/10/12 07:01:02;;;;;;;;;24.50;19.75;;;;;10.56;89.67;102243.47;4961624;28;45800;-63
2021/10/12 07:03:29;;;;;;;;;19.00;17.25;;;;;10.55;89.64;102233.94;4962220;28;45525;-63
2021/10/12 07:05:54;;;;;;;;;23.00;17.25;;;;;10.51;89.34;102232.22;4960482;28;47089;-63
2021/10/12 07:08:19;;;;;;;;;20.00;18.50;;;;;10.55;89.34;102233.94;4961088;28;45490;-63
2021/10/12 07:10:44;;;;;;;;;28.50;22.25;;;;;10.55;89.50;102231.34;4944276;28;45455;-64
2021/10/12 07:13:12;;;;;;;;;23.50;16.50;;;;;10.54;89.83;102228.75;4961940;28;45423;-63
2021/10/12 07:15:37;;;;;;;;;17.75;13.50;;;;;10.57;89.70;102220.94;4959728;28;48202;-63
2021/10/12 07:18:03;;;;;;;;;25.25;20.00;;;;;10.63;89.60;102214.00;4959846;28;45475;-63
2021/10/12 07:20:28;;;;;;;;;27.75;23.25;;;;;10.70;89.38;102211.34;4944256;28;45243;-62
2021/10/12 07:22:54;;;;;;;;;36.00;26.25;;;;;10.76;89.10;102206.13;4960681;28;45337;-62
2021/10/12 07:25:19;;;;;;;;;23.00;18.50;;;;;10.89;88.77;102210.41;4961458;28;45536;-63
2021/10/12 07:27:46;;;;;;;;;18.00;13.75;;;;;10.98;87.98;102211.19;4960252;28;45806;-63
2021/10/12 07:30:11;;;;;;;;;34.00;24.00;;;;;11.02;88.24;102216.41;4961325;28;45398;-62
2021/10/12 07:32:37;;;;;;;;;25.25;23.50;;;;;11.10;87.78;102210.28;4961884;28;45405;-63
2021/10/12 07:35:04;;;;;;;;;23.75;20.50;;;;;11.18;87.39;102202.41;4961796;28;46372;-63
2021/10/12 07:37:30;;;;;;;;;22.25;18.00;;;;;11.26;87.19;102213.66;4961903;28;45318;-62
2021/10/12 07:39:55;;;;;;;;;25.25;23.25;;;;;11.32;87.39;102208.41;4961543;28;45258;-63
2021/10/12 07:42:21;;;;;;;;;39.25;27.50;;;;;11.40;86.76;102216.13;4961183;28;45250;-62
2021/10/12 07:44:46;;;;;;;;;32.25;24.75;;;;;11.45;86.73;102207.44;4961203;28;45469;-62
2021/10/12 07:47:11;;;;;;;;;23.00;20.75;;;;;11.52;86.70;102214.31;4961689;28;45243;-62
2021/10/12 07:49:37;;;;;;;;;30.25;23.25;;;;;11.61;86.14;102215.09;4961625;28;45396;-62
2021/10/12 07:52:07;;;;;;;;;25.75;19.25;;;;;11.68;85.65;102215.06;4961511;28;45327;-62
2021/10/12 07:54:40;;;;;;;;;25.50;20.00;;;;;11.77;85.55;102211.50;4960902;28;46966;-62
2021/10/12 07:57:06;;;;;;;;;21.75;20.00;;;;;11.87;84.56;102205.38;4960916;28;45800;-62
2021/10/12 07:59:31;;;;;;;;;23.50;17.75;;;;;12.00;84.84;102213.91;4961187;28;45370;-61
2021/10/12 08:01:57;;;;;;;;;20.00;16.25;;;;;12.07;84.48;102207.78;4960851;28;45224;-62
2021/10/12 08:04:22;;;;;;;;;23.00;16.75;;;;;12.12;83.41;102203.38;4961072;28;45379;-63
2021/10/12 08:06:48;;;;;;;;;18.50;16.25;;;;;12.16;83.59;102197.25;4961608;28;45207;-63
2021/10/12 08:09:14;;;;;;;;;18.50;15.50;;;;;12.20;82.96;102198.94;4961183;28;45251;-63
2021/10/12 08:11:40;;;;;;;;;17.50;11.50;;;;;12.24;82.94;102198.06;4961409;28;45510;-63
2021/10/12 08:14:08;;;;;;;;;16.50;12.00;;;;;12.33;82.66;102199.69;4961237;28;46330;-63
2021/10/12 08:16:34;;;;;;;;;22.00;13.50;;;;;12.39;81.85;102194.38;4961150;28;45376;-63
2021/10/12 08:19:05;;;;;;;;;17.50;14.75;;;;;12.42;81.62;102189.16;4959407;28;45486;-64
2021/10/12 08:21:31;;;;;;;;;18.50;16.25;;;;;12.41;81.96;102196.13;4961117;28;45322;-63
2021/10/12 08:24:00;;;;;;;;;29.50;17.25;;;;;12.46;82.20;102207.34;4943044;28;47639;-63
2021/10/12 08:26:26;;;;;;;;;19.25;18.50;;;;;12.62;82.28;102200.22;4960917;28;45764;-62
2021/10/12 08:28:52;;;;;;;;;21.50;18.25;;;;;12.73;81.45;102200.94;4960982;28;45441;-62
2021/10/12 08:31:17;;;;;;;;;18.50;17.50;;;;;12.89;81.21;102204.19;4960776;28;45385;-63
2021/10/12 08:33:44;;;;;;;;;26.50;22.75;;;;;13.01;81.08;102200.53;4960744;28;46417;-62
2021/10/12 08:36:10;;;;;;;;;25.25;20.00;;;;;13.08;80.59;102196.97;4960760;28;45756;-62
2021/10/12 08:38:40;;;;;;;;;22.00;18.25;;;;;13.25;79.85;102194.16;4960714;28;45430;-62
2021/10/12 08:41:06;;;;;;;;;21.75;21.25;;;;;13.29;79.82;102188.00;4960483;28;45240;-62
2021/10/12 08:43:34;;;;;;;;;24.50;20.75;;;;;13.33;79.04;102182.69;4959882;28;46138;-63
2021/10/12 08:46:00;;;;;;;;;19.25;16.25;;;;;13.39;79.24;102186.94;4960425;28;45360;-61
2021/10/12 08:48:27;;;;;;;;;26.75;19.00;;;;;13.46;78.88;102178.16;4960507;28;45313;-62
2021/10/12 08:50:53;;;;;;;;;21.50;17.75;;;;;13.54;78.94;102176.25;4960720;28;45354;-62
2021/10/12 08:53:19;;;;;;;;;23.25;17.75;;;;;13.55;77.73;102177.97;4959807;28;45443;-62
2021/10/12 08:55:44;;;;;;;;;17.00;16.25;;;;;13.55;77.86;102171.88;4960561;28;45198;-62
2021/10/12 08:58:24;;;;;;;;;25.00;19.75;;;;;13.60;77.75;102167.44;4960427;28;45532;-62
2021/10/12 09:01:02;;;;;;;;;26.75;22.25;;;;;13.59;76.91;102166.59;4960374;28;45322;-63
2021/10/12 09:03:44;;;;;;;;;24.25;22.75;;;;;13.66;77.64;102170.84;4948433;28;45658;-63
2021/10/12 09:06:09;;;;;;;;;24.00;19.50;;;;;13.82;77.25;102160.13;4960502;28;45315;-63
2021/10/12 09:08:39;;;;;;;;;24.50;20.00;;;;;13.92;77.18;102159.91;4959683;28;45307;-63
2021/10/12 09:11:18;;;;;;;;;29.50;20.50;;;;;14.06;76.32;102162.28;4960163;28;45227;-63
2021/10/12 09:13:46;;;;;;;;;30.50;22.25;;;;;14.20;75.35;102155.00;4960139;28;45583;-63
2021/10/12 09:16:14;;;;;;;;;30.00;21.25;;;;;14.28;74.88;102144.41;4959766;28;45337;-63
2021/10/12 09:18:53;;;;;;;;;25.25;19.25;;;;;14.39;74.58;102142.41;4939697;28;45436;-64
2021/10/12 09:21:20;;;;;;;;;18.75;16.75;;;;;14.45;74.06;102149.31;4960680;28;45762;-63
2021/10/12 09:23:48;;;;;;;;;20.50;18.00;;;;;14.53;74.66;102147.38;4942475;28;47143;-63
2021/10/12 09:26:21;;;;;;;;;16.25;13.50;;;;;14.63;73.58;102138.47;4960213;28;45287;-63
2021/10/12 09:28:47;;;;;;;;;26.50;20.75;;;;;14.69;72.85;102140.94;4942863;28;45381;-63
2021/10/12 09:31:12;;;;;;;;;21.50;20.00;;;;;14.78;72.79;102137.25;4959997;28;45275;-63
2021/10/12 09:33:48;;;;;;;;;23.00;19.00;;;;;14.88;73.34;102139.63;4959904;28;46346;-63
2021/10/12 09:36:36;;;;;;;;;23.50;21.25;;;;;15.10;73.63;102146.97;4958923;28;45251;-63
2021/10/12 09:39:03;;;;;;;;;27.75;24.00;;;;;15.26;72.33;102142.25;4960241;28;45329;-63
2021/10/12 09:41:29;;;;;;;;;22.50;19.25;;;;;15.30;72.01;102131.63;4959771;28;45451;-63
2021/10/12 09:44:19;;;;;;;;;23.75;20.00;;;;;15.46;72.18;102125.13;4960217;28;45460;-63
2021/10/12 09:46:48;;;;;;;;;28.00;23.25;;;;;15.60;70.12;102132.63;4959903;28;45252;-63
2021/10/12 09:49:24;;;;;;;;;30.25;19.00;;;;;15.85;72.26;102135.50;4960554;28;45281;-63
2021/10/12 09:52:03;;;;;;;;;21.25;19.50;;;;;16.67;66.28;102138.38;4947928;28;45279;-63
2021/10/12 09:54:39;;;;;;;;;24.25;21.00;;;;;16.78;68.05;102142.44;4960004;28;45492;-63
2021/10/12 09:57:06;;;;;;;;;22.00;20.75;;;;;16.83;66.77;102140.53;4959783;28;45268;-63
2021/10/12 09:59:34;;;;;;;;;23.50;20.75;;;;;16.85;67.39;102131.72;4959404;28;45346;-63
2021/10/12 10:02:01;;;;;;;;;23.50;15.75;;;;;16.90;65.80;102137.66;4959148;28;45294;-63
2021/10/12 10:04:28;;;;;;;;;24.00;18.25;;;;;17.13;65.92;102136.94;4946499;28;47962;-63
2021/10/12 10:07:03;;;;;;;;;22.50;18.25;;;;;17.71;65.76;102121.84;4961556;28;45290;-63
2021/10/12 10:09:30;;;;;;;;;28.50;20.00;;;;;18.39;64.23;102122.88;4945285;28;45361;-64
2021/10/12 10:11:57;;;;;;;;;23.75;19.50;;;;;19.37;63.28;102125.97;4961107;28;45738;-64
2021/10/12 10:14:24;;;;;;;;;23.00;19.25;;;;;19.93;60.32;102119.19;4962290;28;46418;-63
2021/10/12 10:16:52;;;;;;;;;29.00;22.75;;;;;19.81;59.30;102117.94;4962491;28;45831;-63
2021/10/12 10:19:21;;;;;;;;;24.75;17.00;;;;;19.44;57.94;102119.53;4961698;28;45311;-63
2021/10/12 10:21:48;;;;;;;;;20.25;18.25;;;;;18.99;56.96;102114.38;4962874;28;45223;-63
2021/10/12 10:24:22;;;;;;;;;17.50;16.75;;;;;18.71;59.33;102112.00;4962656;28;46390;-63
2021/10/12 10:26:49;;;;;;;;;22.25;18.25;;;;;18.59;60.25;102101.91;4960664;28;45758;-63
2021/10/12 10:29:24;;;;;;;;;22.25;20.00;;;;;18.71;60.01;102108.50;4961635;28;45568;-63
2021/10/12 10:31:59;;;;;;;;;17.25;15.25;;;;;18.57;59.83;102097.59;4961267;28;45368;-63
2021/10/12 10:34:30;;;;;;;;;21.25;19.50;;;;;19.03;61.40;102100.16;4961522;28;45501;-63
2021/10/12 10:37:17;;;;;;;;;18.50;16.25;;;;;19.72;57.33;102092.84;4961628;28;45369;-63
2021/10/12 10:39:50;;;;;;;;;21.25;16.75;;;;;19.77;58.67;102086.50;4962011;28;45272;-63
2021/10/12 10:42:27;;;;;;;;;20.00;15.25;;;;;19.72;58.76;102084.91;4962169;28;45220;-63
2021/10/12 10:44:53;;;;;;;;;13.00;10.75;;;;;19.82;58.73;102077.44;4961728;28;46499;-62
2021/10/12 10:47:40;;;;;;;;;14.25;10.00;;;;;19.56;56.84;102089.16;4961991;28;45236;-62
2021/10/12 10:50:14;;;;;;;;;11.75;9.50;;;;;18.98;57.65;102078.41;4949046;28;45272;-62
2021/10/12 10:52:50;;;;;;;;;12.50;11.00;;;;;18.73;58.42;102088.22;4962125;28;45505;-62
2021/10/12 10:55:24;;;;;;;;;13.75;9.00;;;;;18.65;59.59;102077.16;4962330;28;45420;-62
2021/10/12 10:58:11;;;;;;;;;18.25;16.50;;;;;18.68;57.80;102083.16;4961873;28;45426;-63
2021/10/12 11:00:56;;;;;;;;;16.50;14.50;;;;;19.42;57.54;102079.19;4961751;28;45505;-63
2021/10/12 11:03:25;;;;;;;;;23.75;16.25;;;;;19.53;57.28;102078.69;4931330;28;46009;-63
2021/10/12 11:05:50;;;;;;;;;14.75;14.25;;;;;19.72;58.20;102069.09;4961920;28;45759;-63
2021/10/12 11:08:17;;;;;;;;;17.75;14.00;;;;;20.60;58.92;102074.69;4961184;28;45255;-63
2021/10/12 11:10:46;;;;;;;;;18.50;16.00;;;;;21.60;54.97;102070.56;4944360;28;45263;-63
2021/10/12 11:13:24;;;;;;;;;18.00;11.00;;;;;21.50;52.58;102067.56;4962156;28;45463;-63